Terminal Aerodrome Forecast
Issued by NWS

Home | Current Version | Previous Version | Text Only | Print | Product List | Glossary On
Versions: 1 2 3 4 5 6 7 8 9 10 11 12 13
000
FTUS44 KLZK 141100
TAFLLQ
TAF
KLLQ 141130Z 1412/1512 23005KT P6SM SCT250
     FM141500 24008KT P6SM SCT040
     FM141800 24010G16KT P6SM VCTS SCT035CB BKN080
     FM150000 30010KT P6SM VCTS SCT035CB BKN100 PROB30 1500/1506 4SM
      TSRA OVC030CB
     FM150600 34005KT P6SM VCTS SCT035CB BKN100=

USA.gov is the U.S. government's official web portal to all federal, state and local government web resources and services.